createdAt,value
2022-11-24T00:01:14.767Z,6.56
2022-11-24T00:03:41.159Z,6.63
2022-11-24T00:06:08.493Z,6.57
2022-11-24T00:08:35.186Z,6.67
2022-11-24T00:11:05.575Z,6.63
2022-11-24T00:13:32.268Z,6.81
2022-11-24T00:16:08.626Z,6.76
2022-11-24T00:18:35.028Z,6.82
2022-11-24T00:21:01.324Z,6.78
2022-11-24T00:23:27.626Z,6.84
2022-11-24T00:25:53.919Z,6.92
2022-11-24T00:28:20.205Z,6.99
2022-11-24T00:30:46.630Z,7.13
2022-11-24T00:33:12.959Z,6.92
2022-11-24T00:35:39.271Z,7.12
2022-11-24T00:38:05.663Z,7.21
2022-11-24T00:40:35.014Z,7.12
2022-11-24T00:43:01.566Z,7.07
2022-11-24T00:45:27.855Z,7.08
2022-11-24T00:47:54.161Z,7.04
2022-11-24T00:50:21.180Z,7.12
2022-11-24T00:52:47.477Z,6.92
2022-11-24T00:55:13.759Z,6.99
2022-11-24T00:57:40.127Z,7.11
2022-11-24T01:00:06.879Z,6.98
2022-11-24T01:02:33.266Z,7.11
2022-11-24T01:04:59.622Z,7.13
2022-11-24T01:07:25.941Z,6.84
2022-11-24T01:09:52.241Z,7.02
2022-11-24T01:12:18.638Z,7.12
2022-11-24T01:14:44.935Z,6.98
2022-11-24T01:17:11.231Z,7.06
2022-11-24T01:19:37.538Z,7.25
2022-11-24T01:22:03.891Z,7.19
2022-11-24T01:24:30.194Z,7.41
2022-11-24T01:26:56.494Z,7.19
2022-11-24T01:29:22.800Z,7.24
2022-11-24T01:31:49.154Z,7.39
2022-11-24T01:34:15.499Z,7.29
2022-11-24T01:36:41.843Z,7.35
2022-11-24T01:39:08.148Z,7.36
2022-11-24T01:41:34.505Z,7.38
2022-11-24T01:44:00.842Z,7.27
2022-11-24T01:46:30.204Z,7.06
2022-11-24T01:49:08.694Z,7.15
2022-11-24T01:51:36.195Z,7.40
2022-11-24T01:54:07.179Z,7.41
2022-11-24T01:56:33.510Z,7.47
2022-11-24T01:59:00.173Z,7.24
2022-11-24T02:01:26.745Z,7.37
2022-11-24T02:03:53.215Z,7.42
2022-11-24T02:06:21.149Z,7.43
2022-11-24T02:08:50.144Z,7.40
2022-11-24T02:11:16.429Z,7.43
2022-11-24T02:13:42.738Z,7.33
2022-11-24T02:16:10.088Z,7.40
2022-11-24T02:18:36.939Z,7.50
2022-11-24T02:21:03.257Z,7.36
2022-11-24T02:23:31.515Z,7.62
2022-11-24T02:26:16.541Z,7.38
2022-11-24T02:28:42.834Z,7.54
2022-11-24T02:31:09.240Z,7.61
2022-11-24T02:33:35.643Z,7.45
2022-11-24T02:36:02.079Z,7.48
2022-11-24T02:38:34.803Z,7.53
2022-11-24T02:41:03.160Z,7.61
2022-11-24T02:43:30.783Z,7.70
2022-11-24T02:45:57.239Z,7.63
2022-11-24T02:48:23.710Z,7.60
2022-11-24T02:50:49.998Z,7.70
2022-11-24T02:53:16.348Z,7.56
2022-11-24T02:55:42.652Z,7.64
2022-11-24T02:58:08.951Z,7.48
2022-11-24T03:00:35.254Z,7.57
2022-11-24T03:03:01.600Z,7.47
2022-11-24T03:05:28.033Z,7.50
2022-11-24T03:07:54.357Z,7.58
2022-11-24T03:10:20.930Z,7.31
2022-11-24T03:12:47.222Z,7.39
2022-11-24T03:15:13.579Z,7.35
2022-11-24T03:17:39.968Z,7.54
2022-11-24T03:20:06.458Z,7.62
2022-11-24T03:22:32.777Z,7.34
2022-11-24T03:24:59.225Z,7.57
2022-11-24T03:27:25.592Z,7.79
2022-11-24T03:29:51.894Z,7.76
2022-11-24T03:32:18.194Z,7.56
2022-11-24T03:34:44.622Z,7.70
2022-11-24T03:37:10.947Z,7.58
2022-11-24T03:39:37.237Z,7.67
2022-11-24T03:42:03.531Z,7.74
2022-11-24T03:44:29.828Z,7.78
2022-11-24T03:46:56.129Z,7.70
2022-11-24T03:49:22.495Z,7.79
2022-11-24T03:51:48.831Z,7.59
2022-11-24T03:54:15.373Z,7.60
2022-11-24T03:56:41.693Z,7.81
2022-11-24T03:59:08.668Z,7.66
2022-11-24T04:01:35.078Z,7.79
2022-11-24T04:04:01.419Z,7.79
2022-11-24T04:06:27.703Z,7.80
2022-11-24T04:08:54.054Z,7.84
2022-11-24T04:11:39.072Z,7.82
2022-11-24T04:14:10.474Z,7.80
2022-11-24T04:16:39.634Z,7.65
2022-11-24T04:19:06.131Z,7.45
2022-11-24T04:21:32.426Z,7.59
2022-11-24T04:23:58.783Z,7.54
2022-11-24T04:26:25.073Z,7.54
2022-11-24T04:28:51.366Z,7.45
2022-11-24T04:31:18.437Z,7.46
2022-11-24T04:33:44.819Z,7.51
2022-11-24T04:36:11.165Z,7.64
2022-11-24T04:39:23.424Z,7.57
2022-11-24T04:41:23.740Z,7.45
2022-11-24T04:43:50.562Z,7.44
2022-11-24T04:46:17.082Z,7.75
2022-11-24T04:48:43.488Z,7.79
2022-11-24T04:51:10.001Z,7.83
2022-11-24T04:53:36.319Z,7.79
2022-11-24T04:56:06.238Z,7.68
2022-11-24T04:58:32.662Z,7.81
2022-11-24T05:00:58.955Z,7.84
2022-11-24T05:03:25.242Z,8.04
2022-11-24T05:05:51.545Z,8.02
2022-11-24T05:08:17.835Z,7.99
2022-11-24T05:10:44.194Z,8.26
2022-11-24T05:13:10.877Z,8.21
2022-11-24T05:15:37.897Z,8.17
2022-11-24T05:18:05.879Z,8.02
2022-11-24T05:20:32.169Z,8.28
2022-11-24T05:23:05.198Z,7.94
2022-11-24T05:25:31.739Z,8.03
2022-11-24T05:28:01.785Z,8.28
2022-11-24T05:30:28.293Z,8.20
2022-11-24T05:32:54.637Z,8.04
2022-11-24T05:35:21.562Z,8.14
2022-11-24T05:37:47.868Z,8.09
2022-11-24T05:40:14.169Z,8.17
2022-11-24T05:42:46.091Z,8.20
2022-11-24T05:45:22.454Z,8.13
2022-11-24T05:47:49.191Z,8.13
2022-11-24T05:50:16.120Z,8.34
2022-11-24T05:52:42.492Z,8.34
2022-11-24T05:55:09.300Z,8.34
2022-11-24T05:57:35.922Z,8.43
2022-11-24T06:00:03.848Z,8.38
2022-11-24T06:02:30.246Z,8.45
2022-11-24T06:04:56.638Z,8.34
2022-11-24T06:07:22.957Z,8.08
2022-11-24T06:09:49.250Z,8.26
2022-11-24T06:12:15.602Z,8.34
2022-11-24T06:14:41.903Z,8.34
2022-11-24T06:17:09.006Z,8.12
2022-11-24T06:19:38.717Z,8.37
2022-11-24T06:22:08.121Z,8.09
2022-11-24T06:24:34.523Z,8.13
2022-11-24T06:27:01.046Z,8.26
2022-11-24T06:29:28.054Z,8.09
2022-11-24T06:31:54.418Z,8.16
2022-11-24T06:34:20.760Z,7.98
2022-11-24T06:36:47.053Z,8.02
2022-11-24T06:39:13.342Z,8.00
2022-11-24T06:41:39.643Z,7.85
2022-11-24T06:44:06.049Z,7.91
2022-11-24T06:46:32.346Z,8.01
2022-11-24T06:48:59.787Z,8.08
2022-11-24T06:51:26.894Z,8.24
2022-11-24T06:53:53.356Z,8.00
2022-11-24T06:56:20.292Z,8.04
2022-11-24T06:58:47.442Z,8.08
2022-11-24T07:01:14.556Z,8.06
2022-11-24T07:03:40.871Z,8.19
2022-11-24T07:06:07.172Z,8.26
2022-11-24T07:08:33.460Z,8.32
2022-11-24T07:11:04.204Z,8.18
2022-11-24T07:13:30.491Z,8.17
2022-11-24T07:15:56.839Z,8.26
2022-11-24T07:18:23.175Z,8.30
2022-11-24T07:20:49.519Z,8.19
2022-11-24T07:23:15.811Z,8.38
2022-11-24T07:25:42.118Z,8.09
2022-11-24T07:28:08.645Z,8.14
2022-11-24T07:30:35.013Z,8.27
2022-11-24T07:33:01.690Z,8.24
2022-11-24T07:35:28.137Z,8.17
2022-11-24T07:37:55.314Z,8.22
2022-11-24T07:40:21.669Z,8.26
2022-11-24T07:42:48.126Z,8.41
2022-11-24T07:45:14.413Z,8.56
2022-11-24T07:47:40.926Z,8.42
2022-11-24T07:50:09.524Z,8.45
2022-11-24T07:52:36.213Z,8.50
2022-11-24T07:55:02.653Z,8.48
2022-11-24T07:57:29.106Z,8.41
2022-11-24T07:59:55.656Z,8.38
2022-11-24T08:02:21.943Z,8.65
2022-11-24T08:04:48.226Z,8.54
2022-11-24T08:07:14.563Z,8.51
2022-11-24T08:09:40.963Z,8.48
2022-11-24T08:12:07.264Z,8.55
2022-11-24T08:14:33.846Z,8.61
2022-11-24T08:17:00.420Z,8.55
2022-11-24T08:19:26.830Z,8.67
2022-11-24T08:21:53.133Z,8.60
2022-11-24T08:24:19.494Z,8.57
2022-11-24T08:26:45.881Z,8.49
2022-11-24T08:29:12.183Z,8.48
2022-11-24T08:31:38.778Z,8.77
2022-11-24T08:34:05.470Z,8.87
2022-11-24T08:36:31.908Z,8.94
2022-11-24T08:38:59.258Z,9.02
2022-11-24T08:41:25.892Z,8.98
2022-11-24T08:43:52.427Z,8.93
2022-11-24T08:46:19.114Z,8.77
2022-11-24T08:48:50.725Z,8.79
2022-11-24T08:51:18.130Z,8.75
2022-11-24T08:53:44.472Z,7.46
2022-11-24T08:56:11.080Z,7.76
2022-11-24T08:58:37.833Z,7.49
2022-11-24T09:01:10.456Z,7.40
2022-11-24T09:03:37.679Z,7.30
2022-11-24T09:06:04.198Z,7.54
2022-11-24T09:08:30.787Z,7.36
2022-11-24T09:11:03.892Z,7.24
2022-11-24T09:13:30.241Z,7.40
2022-11-24T09:15:56.592Z,7.47
2022-11-24T09:18:27.482Z,7.81
2022-11-24T09:21:05.280Z,7.54
2022-11-24T09:23:31.577Z,7.62
2022-11-24T09:26:02.867Z,7.62
2022-11-24T09:28:29.170Z,7.52
2022-11-24T09:30:55.516Z,7.46
2022-11-24T09:33:21.835Z,7.47
2022-11-24T09:35:49.749Z,7.57
2022-11-24T09:38:16.093Z,7.64
2022-11-24T09:40:42.377Z,7.61
2022-11-24T09:43:12.735Z,7.68
2022-11-24T09:46:03.797Z,7.71
2022-11-24T09:48:27.126Z,7.78
2022-11-24T09:50:53.618Z,7.60
2022-11-24T09:53:27.701Z,7.64
2022-11-24T09:55:55.309Z,7.55
2022-11-24T09:58:39.032Z,7.67
2022-11-24T10:01:12.212Z,7.63
2022-11-24T10:03:39.727Z,7.54
2022-11-24T10:06:11.327Z,7.67
2022-11-24T10:09:00.340Z,7.74
2022-11-24T10:11:32.065Z,7.64
2022-11-24T10:14:03.175Z,7.76
2022-11-24T10:16:42.757Z,7.68
2022-11-24T10:19:15.208Z,7.87
2022-11-24T10:21:41.445Z,7.89
2022-11-24T10:24:10.725Z,7.84
2022-11-24T10:26:37.861Z,7.76
2022-11-24T10:29:15.927Z,7.90
2022-11-24T10:31:43.138Z,7.89
2022-11-24T10:34:13.832Z,7.85
2022-11-24T10:36:43.961Z,8.07
2022-11-24T10:39:12.549Z,8.06
2022-11-24T10:41:40.418Z,8.05
2022-11-24T10:44:10.999Z,8.20
2022-11-24T10:46:39.486Z,8.20
2022-11-24T10:49:06.059Z,8.19
2022-11-24T10:51:51.268Z,8.19
2022-11-24T10:54:19.170Z,8.10
2022-11-24T10:56:46.044Z,8.03
2022-11-24T10:59:32.259Z,8.27
2022-11-24T11:01:59.128Z,8.14
2022-11-24T11:04:32.977Z,8.18
2022-11-24T11:07:09.351Z,8.09
2022-11-24T11:09:35.865Z,8.18
2022-11-24T11:12:35.948Z,8.31
2022-11-24T11:14:55.954Z,8.18
2022-11-24T11:17:38.179Z,8.22
2022-11-24T11:20:25.623Z,8.22
2022-11-24T11:22:52.409Z,8.08
2022-11-24T11:25:32.676Z,8.14
2022-11-24T11:28:18.516Z,8.15
2022-11-24T11:31:18.013Z,8.05
2022-11-24T11:34:03.749Z,8.12
2022-11-24T11:36:31.712Z,8.10
2022-11-24T11:38:58.232Z,8.09
2022-11-24T11:41:26.777Z,8.12
2022-11-24T11:43:56.842Z,8.20
2022-11-24T11:46:23.467Z,8.20
2022-11-24T11:48:49.842Z,8.24
2022-11-24T11:51:28.335Z,8.25
2022-11-24T11:54:04.844Z,8.15
2022-11-24T11:56:33.122Z,8.35
2022-11-24T11:58:59.422Z,8.30
2022-11-24T12:01:35.840Z,8.23
2022-11-24T12:04:23.110Z,8.27
2022-11-24T12:07:04.550Z,8.23
2022-11-24T12:09:49.528Z,8.23
2022-11-24T12:12:34.702Z,8.26
2022-11-24T12:15:16.486Z,8.33
2022-11-24T12:17:45.547Z,8.34
2022-11-24T12:20:24.090Z,8.40
2022-11-24T12:23:02.856Z,8.28
2022-11-24T12:25:40.100Z,8.19
2022-11-24T12:28:21.706Z,8.13
2022-11-24T12:31:04.644Z,8.22
2022-11-24T12:33:47.548Z,8.18
2022-11-24T12:36:24.857Z,8.19
2022-11-24T12:39:07.955Z,8.22
2022-11-24T12:41:42.931Z,8.21
2022-11-24T12:44:29.671Z,8.32
2022-11-24T12:46:57.966Z,8.32
2022-11-24T12:49:28.505Z,8.37
2022-11-24T12:51:56.173Z,8.23
2022-11-24T12:54:22.463Z,8.35
2022-11-24T12:56:59.832Z,8.27
2022-11-24T12:59:32.783Z,8.35
2022-11-24T13:02:03.321Z,8.17
2022-11-24T13:04:35.898Z,8.36
2022-11-24T13:07:15.832Z,8.31
2022-11-24T13:10:08.388Z,8.24
2022-11-24T13:12:34.724Z,8.22
2022-11-24T13:15:01.038Z,8.33
2022-11-24T13:17:34.363Z,8.34
2022-11-24T13:20:14.898Z,8.29
2022-11-24T13:22:44.994Z,8.26
2022-11-24T13:25:14.761Z,8.38
2022-11-24T13:27:42.471Z,8.27
2022-11-24T13:30:27.550Z,8.29
2022-11-24T13:32:59.180Z,8.34
2022-11-24T13:35:25.555Z,8.32
2022-11-24T13:37:52.701Z,8.32
2022-11-24T13:40:22.430Z,8.30
2022-11-24T13:42:54.662Z,8.27
2022-11-24T13:45:49.566Z,8.29
2022-11-24T13:48:18.893Z,8.32
2022-11-24T13:50:51.573Z,8.33
2022-11-24T13:53:22.211Z,8.14
2022-11-24T13:55:53.961Z,8.42
2022-11-24T13:58:27.696Z,8.33
2022-11-24T14:01:05.766Z,8.27
2022-11-24T14:06:42.446Z,8.16
2022-11-24T14:09:24.204Z,8.31
2022-11-24T14:12:09.265Z,8.40
2022-11-24T14:14:35.795Z,8.23
2022-11-24T14:17:22.577Z,8.38
2022-11-24T14:19:49.625Z,8.33
2022-11-24T14:22:23.089Z,8.27
2022-11-24T14:24:53.250Z,8.30
2022-11-24T14:27:20.362Z,8.14
2022-11-24T14:29:54.528Z,8.36
2022-11-24T14:32:21.887Z,8.32
2022-11-24T14:34:48.214Z,8.27
2022-11-24T14:37:14.572Z,8.28
2022-11-24T14:39:41.209Z,8.23
2022-11-24T14:42:18.674Z,8.22
2022-11-24T14:44:56.343Z,8.14
2022-11-24T14:47:30.583Z,8.19
2022-11-24T14:49:58.378Z,8.23
2022-11-24T14:52:24.857Z,8.27
2022-11-24T14:54:52.061Z,8.24
2022-11-24T14:57:26.046Z,8.28
2022-11-24T15:00:06.207Z,8.14
2022-11-24T15:02:55.959Z,8.06
2022-11-24T15:05:22.992Z,8.14
2022-11-24T15:07:50.020Z,8.17
2022-11-24T15:10:33.575Z,8.02
2022-11-24T15:13:00.508Z,8.16
2022-11-24T15:15:31.449Z,8.14
2022-11-24T15:17:58.419Z,8.01
2022-11-24T15:20:32.008Z,7.95
2022-11-24T15:23:13.273Z,7.94
2022-11-24T15:25:39.616Z,7.98
2022-11-24T15:28:06.075Z,7.92
2022-11-24T15:30:33.261Z,7.94
2022-11-24T15:32:59.634Z,7.83
2022-11-24T15:35:28.464Z,7.94
2022-11-24T15:37:54.772Z,7.80
2022-11-24T15:40:21.057Z,7.74
2022-11-24T15:42:52.169Z,7.76
2022-11-24T15:45:18.851Z,7.80
2022-11-24T15:47:45.159Z,7.78
2022-11-24T15:50:11.636Z,7.83
2022-11-24T15:52:37.985Z,7.70
2022-11-24T15:55:04.426Z,7.76
2022-11-24T15:57:32.261Z,7.81
2022-11-24T15:59:58.568Z,7.74
2022-11-24T16:02:25.387Z,7.73
2022-11-24T16:04:51.872Z,7.87
2022-11-24T16:07:18.225Z,7.86
2022-11-24T16:09:44.560Z,7.88
2022-11-24T16:12:10.883Z,7.95
2022-11-24T16:14:37.460Z,7.90
2022-11-24T16:17:03.896Z,7.97
2022-11-24T16:19:30.194Z,7.92
2022-11-24T16:21:56.482Z,7.84
2022-11-24T16:24:22.823Z,7.85
2022-11-24T16:26:49.282Z,7.92
2022-11-24T16:29:15.626Z,7.98
2022-11-24T16:31:43.467Z,7.89
2022-11-24T16:34:10.072Z,7.94
2022-11-24T16:36:36.535Z,7.91
2022-11-24T16:39:02.863Z,8.00
2022-11-24T16:41:29.151Z,7.95
2022-11-24T16:43:55.495Z,8.06
2022-11-24T16:46:22.129Z,7.96
2022-11-24T16:48:49.686Z,8.05
2022-11-24T16:51:16.038Z,8.16
2022-11-24T16:53:42.468Z,8.10
2022-11-24T16:56:09.017Z,8.06
2022-11-24T16:58:39.132Z,8.13
2022-11-24T17:01:07.317Z,8.20
2022-11-24T17:03:36.982Z,8.09
2022-11-24T17:06:03.649Z,8.18
2022-11-24T17:08:30.541Z,8.12
2022-11-24T17:10:56.854Z,8.19
2022-11-24T17:13:24.157Z,8.22
2022-11-24T17:15:54.089Z,8.22
2022-11-24T17:18:25.160Z,8.21
2022-11-24T17:20:51.989Z,8.10
2022-11-24T17:23:19.486Z,8.14
2022-11-24T17:25:45.933Z,8.31
2022-11-24T17:28:12.320Z,8.17
2022-11-24T17:30:38.750Z,8.16
2022-11-24T17:33:05.121Z,8.33
2022-11-24T17:35:33.511Z,8.27
2022-11-24T17:38:00.811Z,8.29
2022-11-24T17:40:29.045Z,8.18
2022-11-24T17:42:59.631Z,8.27
2022-11-24T17:45:27.011Z,8.30
2022-11-24T17:47:53.351Z,8.29
2022-11-24T17:50:25.213Z,8.42
2022-11-24T17:52:52.262Z,8.27
2022-11-24T17:55:18.569Z,8.16
2022-11-24T17:57:44.864Z,8.12
2022-11-24T18:00:11.628Z,8.21
2022-11-24T18:02:38.494Z,8.22
2022-11-24T18:05:04.979Z,8.15
2022-11-24T18:07:31.434Z,8.16
2022-11-24T18:09:57.843Z,8.14
2022-11-24T18:12:24.201Z,8.05
2022-11-24T18:14:50.575Z,8.23
2022-11-24T18:17:16.863Z,8.14
2022-11-24T18:19:43.214Z,8.25
2022-11-24T18:22:09.520Z,8.23
2022-11-24T18:24:35.868Z,8.28
2022-11-24T18:27:02.251Z,8.16
2022-11-24T18:29:28.546Z,8.15
2022-11-24T18:31:54.922Z,8.27
2022-11-24T18:34:24.602Z,8.32
2022-11-24T18:36:52.629Z,8.35
2022-11-24T18:39:19.266Z,8.41
2022-11-24T18:41:45.925Z,8.29
2022-11-24T18:44:12.310Z,8.32
2022-11-24T18:46:39.012Z,8.27
2022-11-24T18:49:05.321Z,8.23
2022-11-24T18:51:31.625Z,8.36
2022-11-24T18:53:58.176Z,8.35
2022-11-24T18:56:24.700Z,8.41
2022-11-24T18:58:54.396Z,8.36
2022-11-24T19:01:21.599Z,8.28
2022-11-24T19:03:49.425Z,8.23
2022-11-24T19:06:17.259Z,8.32
2022-11-24T19:08:43.622Z,8.26
2022-11-24T19:11:39.501Z,8.26
2022-11-24T19:14:07.054Z,8.33
2022-11-24T19:16:33.530Z,8.27
2022-11-24T19:19:00.275Z,8.34
2022-11-24T19:21:27.117Z,8.42
2022-11-24T19:23:53.398Z,8.42
2022-11-24T19:26:19.726Z,8.30
2022-11-24T19:28:46.087Z,8.29
2022-11-24T19:31:13.771Z,8.22
2022-11-24T19:33:40.480Z,8.28
2022-11-24T19:36:07.929Z,8.25
2022-11-24T19:38:34.799Z,8.13
2022-11-24T19:41:02.095Z,8.33
2022-11-24T19:43:28.556Z,8.20
2022-11-24T19:45:55.090Z,8.06
2022-11-24T19:48:21.506Z,8.10
2022-11-24T19:50:47.825Z,8.07
2022-11-24T19:53:14.120Z,7.95
2022-11-24T19:55:40.697Z,7.83
2022-11-24T19:58:07.066Z,7.73
2022-11-24T20:00:33.367Z,7.73
2022-11-24T20:02:59.747Z,7.77
2022-11-24T20:05:26.130Z,7.48
2022-11-24T20:07:52.509Z,7.44
2022-11-24T20:10:18.834Z,7.38
2022-11-24T20:12:45.124Z,7.45
2022-11-24T20:15:11.458Z,7.38
2022-11-24T20:17:37.806Z,7.33
2022-11-24T20:20:04.591Z,7.35
2022-11-24T20:22:31.638Z,7.08
2022-11-24T20:24:58.093Z,6.88
2022-11-24T20:27:24.420Z,6.90
2022-11-24T20:29:50.773Z,6.44
2022-11-24T20:32:20.133Z,6.59
2022-11-24T20:34:46.622Z,6.63
2022-11-24T20:37:13.564Z,6.71
2022-11-24T20:39:40.189Z,6.76
2022-11-24T20:42:07.224Z,6.76
2022-11-24T20:44:33.754Z,7.05
2022-11-24T20:47:01.202Z,7.04
2022-11-24T20:49:27.662Z,6.97
2022-11-24T20:51:54.439Z,6.99
2022-11-24T20:54:20.870Z,7.08
2022-11-24T20:56:47.398Z,7.02
2022-11-24T20:59:14.542Z,7.00
2022-11-24T21:01:42.500Z,7.20
2022-11-24T21:04:10.115Z,7.28
2022-11-24T21:06:36.420Z,7.34
2022-11-24T21:09:04.101Z,7.37
2022-11-24T21:11:30.889Z,7.23
2022-11-24T21:13:57.271Z,7.28
2022-11-24T21:16:24.549Z,7.30
2022-11-24T21:18:52.572Z,7.41
2022-11-24T21:21:19.629Z,7.43
2022-11-24T21:23:46.212Z,7.31
2022-11-24T21:26:16.559Z,7.43
2022-11-24T21:28:43.880Z,6.84
2022-11-24T21:31:11.544Z,6.99
2022-11-24T21:33:41.472Z,6.74
2022-11-24T21:36:07.973Z,6.74
2022-11-24T21:38:34.388Z,6.79
2022-11-24T21:41:01.360Z,6.76
2022-11-24T21:43:30.638Z,6.84
2022-11-24T21:46:00.829Z,6.80
2022-11-24T21:48:27.161Z,6.95
2022-11-24T21:50:53.508Z,6.82
2022-11-24T21:53:19.807Z,6.81
2022-11-24T21:55:55.908Z,6.65
2022-11-24T21:58:22.567Z,6.64
2022-11-24T22:00:49.102Z,6.74
2022-11-24T22:03:15.429Z,6.78
2022-11-24T22:05:41.730Z,6.76
2022-11-24T22:08:08.032Z,6.76
2022-11-24T22:10:34.341Z,6.81
2022-11-24T22:13:00.668Z,6.68
2022-11-24T22:15:26.960Z,6.77
2022-11-24T22:17:53.259Z,6.66
2022-11-24T22:20:19.567Z,6.59
2022-11-24T22:22:45.930Z,6.63
2022-11-24T22:25:12.215Z,6.69
2022-11-24T22:27:38.541Z,6.64
2022-11-24T22:30:05.928Z,6.67
2022-11-24T22:32:32.302Z,6.68
2022-11-24T22:34:58.579Z,6.56
2022-11-24T22:37:24.860Z,6.58
2022-11-24T22:39:51.229Z,6.67
2022-11-24T22:42:17.516Z,6.68
2022-11-24T22:44:43.809Z,6.66
2022-11-24T22:47:10.106Z,6.56
2022-11-24T22:49:36.565Z,6.52
2022-11-24T22:52:02.975Z,6.50
2022-11-24T22:54:29.325Z,6.36
2022-11-24T22:56:55.606Z,6.33
2022-11-24T22:59:25.161Z,6.39
2022-11-24T23:01:53.864Z,6.29
2022-11-24T23:04:20.192Z,6.33
2022-11-24T23:06:46.520Z,6.12
2022-11-24T23:09:12.889Z,6.00
2022-11-24T23:11:39.895Z,5.97
2022-11-24T23:14:07.255Z,5.93
2022-11-24T23:16:33.631Z,5.90
2022-11-24T23:18:59.938Z,5.70
2022-11-24T23:21:27.171Z,5.77
2022-11-24T23:23:53.521Z,5.72
2022-11-24T23:26:20.683Z,5.64
2022-11-24T23:28:46.988Z,5.63
2022-11-24T23:31:17.367Z,5.51
2022-11-24T23:33:43.938Z,5.53
2022-11-24T23:36:14.399Z,5.56
2022-11-24T23:38:40.856Z,5.40
2022-11-24T23:41:09.882Z,5.36
2022-11-24T23:43:36.808Z,5.39
2022-11-24T23:46:06.923Z,5.27
2022-11-24T23:48:33.397Z,5.07
2022-11-24T23:51:03.650Z,5.23
2022-11-24T23:53:31.107Z,5.23
2022-11-24T23:55:57.582Z,5.11
2022-11-24T23:58:23.921Z,4.99
